sensor_id;sensor_type;location;lat;lon;timestamp;pressure;altitude;pressure_sealevel;temperature
6498;BMP280;3282;48.358;10.958;2022-10-30T00:00:43;96740.00;;;13.98
6498;BMP280;3282;48.358;10.958;2022-10-30T00:03:12;96742.66;;;13.94
6498;BMP280;3282;48.358;10.958;2022-10-30T00:05:40;96739.16;;;13.90
6498;BMP280;3282;48.358;10.958;2022-10-30T00:08:09;96736.53;;;13.94
6498;BMP280;3282;48.358;10.958;2022-10-30T00:10:36;96732.63;;;13.91
6498;BMP280;3282;48.358;10.958;2022-10-30T00:13:03;96729.94;;;13.91
6498;BMP280;3282;48.358;10.958;2022-10-30T00:15:29;96737.63;;;13.89
6498;BMP280;3282;48.358;10.958;2022-10-30T00:17:56;96739.09;;;13.83
6498;BMP280;3282;48.358;10.958;2022-10-30T00:20:23;96738.69;;;13.81
6498;BMP280;3282;48.358;10.958;2022-10-30T00:22:49;96718.03;;;13.58
6498;BMP280;3282;48.358;10.958;2022-10-30T00:25:16;96732.91;;;13.79
6498;BMP280;3282;48.358;10.958;2022-10-30T00:27:43;96734.78;;;13.78
6498;BMP280;3282;48.358;10.958;2022-10-30T00:30:10;96735.91;;;13.73
6498;BMP280;3282;48.358;10.958;2022-10-30T00:32:37;96737.47;;;13.74
6498;BMP280;3282;48.358;10.958;2022-10-30T00:35:03;96741.66;;;13.72
6498;BMP280;3282;48.358;10.958;2022-10-30T00:37:30;96735.00;;;13.62
6498;BMP280;3282;48.358;10.958;2022-10-30T00:39:57;96732.34;;;13.62
6498;BMP280;3282;48.358;10.958;2022-10-30T00:42:28;96726.03;;;13.50
6498;BMP280;3282;48.358;10.958;2022-10-30T00:44:55;96737.94;;;13.49
6498;BMP280;3282;48.358;10.958;2022-10-30T00:47:32;96731.69;;;13.42
6498;BMP280;3282;48.358;10.958;2022-10-30T00:52:34;96733.66;;;13.45
6498;BMP280;3282;48.358;10.958;2022-10-30T00:55:05;96724.31;;;13.35
6498;BMP280;3282;48.358;10.958;2022-10-30T00:57:33;96733.97;;;13.40
6498;BMP280;3282;48.358;10.958;2022-10-30T01:00:02;96725.88;;;13.36
6498;BMP280;3282;48.358;10.958;2022-10-30T01:02:29;96727.75;;;13.32
6498;BMP280;3282;48.358;10.958;2022-10-30T01:04:56;96714.94;;;13.21
6498;BMP280;3282;48.358;10.958;2022-10-30T01:07:23;96730.31;;;13.24
6498;BMP280;3282;48.358;10.958;2022-10-30T01:09:49;96700.53;;;13.06
6498;BMP280;3282;48.358;10.958;2022-10-30T01:12:16;96684.22;;;12.92
6498;BMP280;3282;48.358;10.958;2022-10-30T01:14:48;96723.25;;;13.12
6498;BMP280;3282;48.358;10.958;2022-10-30T01:23:18;96728.78;;;12.96
6498;BMP280;3282;48.358;10.958;2022-10-30T01:26:13;96683.13;;;12.69
6498;BMP280;3282;48.358;10.958;2022-10-30T01:29:05;96730.69;;;12.96
6498;BMP280;3282;48.358;10.958;2022-10-30T01:31:50;96712.16;;;12.87
6498;BMP280;3282;48.358;10.958;2022-10-30T01:39:27;96717.16;;;12.89
6498;BMP280;3282;48.358;10.958;2022-10-30T01:41:54;96692.38;;;12.72
6498;BMP280;3282;48.358;10.958;2022-10-30T01:44:28;96701.72;;;12.82
6498;BMP280;3282;48.358;10.958;2022-10-30T01:50:00;96722.13;;;12.86
6498;BMP280;3282;48.358;10.958;2022-10-30T01:55:54;96677.19;;;12.56
6498;BMP280;3282;48.358;10.958;2022-10-30T01:58:19;96714.00;;;12.83
6498;BMP280;3282;48.358;10.958;2022-10-30T02:00:52;96702.38;;;12.75
6498;BMP280;3282;48.358;10.958;2022-10-30T02:03:21;96710.56;;;12.82
6498;BMP280;3282;48.358;10.958;2022-10-30T02:05:50;96721.38;;;12.86
6498;BMP280;3282;48.358;10.958;2022-10-30T02:08:19;96720.94;;;12.84
6498;BMP280;3282;48.358;10.958;2022-10-30T02:10:50;96720.50;;;12.82
6498;BMP280;3282;48.358;10.958;2022-10-30T02:13:27;96719.25;;;12.76
6498;BMP280;3282;48.358;10.958;2022-10-30T02:15:54;96715.03;;;12.74
6498;BMP280;3282;48.358;10.958;2022-10-30T02:18:21;96714.19;;;12.70
6498;BMP280;3282;48.358;10.958;2022-10-30T02:20:47;96709.16;;;12.65
6498;BMP280;3282;48.358;10.958;2022-10-30T02:23:14;96712.22;;;12.67
6498;BMP280;3282;48.358;10.958;2022-10-30T02:25:44;96711.84;;;12.65
6498;BMP280;3282;48.358;10.958;2022-10-30T02:28:11;96697.50;;;12.57
6498;BMP280;3282;48.358;10.958;2022-10-30T02:30:39;96705.69;;;12.65
6498;BMP280;3282;48.358;10.958;2022-10-30T02:33:09;96703.28;;;12.59
6498;BMP280;3282;48.358;10.958;2022-10-30T02:35:36;96708.38;;;12.65
6498;BMP280;3282;48.358;10.958;2022-10-30T02:38:03;96699.13;;;12.62
6498;BMP280;3282;48.358;10.958;2022-10-30T02:40:29;96697.88;;;12.56
6498;BMP280;3282;48.358;10.958;2022-10-30T02:42:56;96688.53;;;12.46
6498;BMP280;3282;48.358;10.958;2022-10-30T02:45:22;96696.19;;;12.44
6498;BMP280;3282;48.358;10.958;2022-10-30T02:47:49;96678.56;;;12.23
6498;BMP280;3282;48.358;10.958;2022-10-30T02:50:16;96687.03;;;12.25
6498;BMP280;3282;48.358;10.958;2022-10-30T02:52:42;96680.44;;;12.19
6498;BMP280;3282;48.358;10.958;2022-10-30T02:55:09;96678.03;;;12.14
6498;BMP280;3282;48.358;10.958;2022-10-30T02:57:37;96670.22;;;12.05
6498;BMP280;3282;48.358;10.958;2022-10-30T03:00:05;96666.69;;;12.01
6498;BMP280;3282;48.358;10.958;2022-10-30T03:02:32;96674.13;;;12.07
6498;BMP280;3282;48.358;10.958;2022-10-30T03:04:59;96688.75;;;12.14
6498;BMP280;3282;48.358;10.958;2022-10-30T03:07:25;96688.44;;;12.15
6498;BMP280;3282;48.358;10.958;2022-10-30T03:09:52;96687.22;;;12.13
6498;BMP280;3282;48.358;10.958;2022-10-30T03:12:20;96695.38;;;12.20
6498;BMP280;3282;48.358;10.958;2022-10-30T03:14:47;96698.06;;;12.20
6498;BMP280;3282;48.358;10.958;2022-10-30T03:17:14;96693.84;;;12.19
6498;BMP280;3282;48.358;10.958;2022-10-30T03:19:40;96689.59;;;12.18
6498;BMP280;3282;48.358;10.958;2022-10-30T03:22:07;96685.75;;;12.15
6498;BMP280;3282;48.358;10.958;2022-10-30T03:24:36;96684.09;;;12.10
6498;BMP280;3282;48.358;10.958;2022-10-30T03:27:04;96676.28;;;12.02
6498;BMP280;3282;48.358;10.958;2022-10-30T03:29:31;96684.06;;;12.07
6498;BMP280;3282;48.358;10.958;2022-10-30T03:31:57;96690.25;;;12.11
6498;BMP280;3282;48.358;10.958;2022-10-30T03:34:31;96696.31;;;12.08
6498;BMP280;3282;48.358;10.958;2022-10-30T03:36:58;96679.41;;;12.04
6498;BMP280;3282;48.358;10.958;2022-10-30T03:39:26;96694.03;;;12.10
6498;BMP280;3282;48.358;10.958;2022-10-30T03:41:53;96696.72;;;12.10
6498;BMP280;3282;48.358;10.958;2022-10-30T03:44:19;96682.78;;;12.01
6498;BMP280;3282;48.358;10.958;2022-10-30T03:46:47;96695.63;;;12.11
6498;BMP280;3282;48.358;10.958;2022-10-30T03:49:22;96696.41;;;12.12
6498;BMP280;3282;48.358;10.958;2022-10-30T03:51:48;96695.97;;;12.09
6498;BMP280;3282;48.358;10.958;2022-10-30T03:54:15;96696.31;;;12.08
6498;BMP280;3282;48.358;10.958;2022-10-30T03:56:43;96687.78;;;12.02
6498;BMP280;3282;48.358;10.958;2022-10-30T03:59:12;96696.94;;;12.01
6498;BMP280;3282;48.358;10.958;2022-10-30T04:01:41;96697.34;;;12.00
6498;BMP280;3282;48.358;10.958;2022-10-30T04:04:08;96699.94;;;11.96
6498;BMP280;3282;48.358;10.958;2022-10-30T04:06:34;96691.41;;;11.90
6498;BMP280;3282;48.358;10.958;2022-10-30T04:09:01;96703.69;;;11.91
6498;BMP280;3282;48.358;10.958;2022-10-30T04:11:34;96705.59;;;11.91
6498;BMP280;3282;48.358;10.958;2022-10-30T04:14:00;96698.34;;;11.91
6498;BMP280;3282;48.358;10.958;2022-10-30T04:16:27;96698.34;;;11.91
6498;BMP280;3282;48.358;10.958;2022-10-30T04:18:55;96702.13;;;11.90
6498;BMP280;3282;48.358;10.958;2022-10-30T04:21:21;96693.66;;;11.88
6498;BMP280;3282;48.358;10.958;2022-10-30T04:23:48;96678.09;;;11.74
6498;BMP280;3282;48.358;10.958;2022-10-30T04:26:17;96702.41;;;11.85
6498;BMP280;3282;48.358;10.958;2022-10-30T04:28:46;96696.63;;;11.83
6498;BMP280;3282;48.358;10.958;2022-10-30T04:31:13;96695.84;;;11.82
6498;BMP280;3282;48.358;10.958;2022-10-30T04:33:41;96684.28;;;11.78
6498;BMP280;3282;48.358;10.958;2022-10-30T04:36:08;96688.16;;;11.81
6498;BMP280;3282;48.358;10.958;2022-10-30T04:38:35;96682.00;;;11.77
6498;BMP280;3282;48.358;10.958;2022-10-30T04:41:04;96676.56;;;11.73
6498;BMP280;3282;48.358;10.958;2022-10-30T04:43:48;96682.97;;;11.68
6498;BMP280;3282;48.358;10.958;2022-10-30T04:46:15;96679.41;;;11.64
6498;BMP280;3282;48.358;10.958;2022-10-30T04:48:43;96668.84;;;11.52
6498;BMP280;3282;48.358;10.958;2022-10-30T04:51:10;96683.09;;;11.56
6498;BMP280;3282;48.358;10.958;2022-10-30T04:53:37;96686.13;;;11.54
6498;BMP280;3282;48.358;10.958;2022-10-30T04:56:06;96690.72;;;11.54
6498;BMP280;3282;48.358;10.958;2022-10-30T04:58:33;96690.28;;;11.52
6498;BMP280;3282;48.358;10.958;2022-10-30T05:01:04;96682.97;;;11.49
6498;BMP280;3282;48.358;10.958;2022-10-30T05:03:33;96676.75;;;11.44
6498;BMP280;3282;48.358;10.958;2022-10-30T05:06:10;96680.56;;;11.43
6498;BMP280;3282;48.358;10.958;2022-10-30T05:08:38;96685.84;;;11.40
6498;BMP280;3282;48.358;10.958;2022-10-30T05:11:16;96681.97;;;11.37
6498;BMP280;3282;48.358;10.958;2022-10-30T05:13:43;96681.44;;;11.31
6498;BMP280;3282;48.358;10.958;2022-10-30T05:16:11;96669.78;;;11.20
6498;BMP280;3282;48.358;10.958;2022-10-30T05:18:38;96683.66;;;11.26
6498;BMP280;3282;48.358;10.958;2022-10-30T05:21:05;96675.94;;;11.24
6498;BMP280;3282;48.358;10.958;2022-10-30T05:23:31;96677.88;;;11.24
6498;BMP280;3282;48.358;10.958;2022-10-30T05:25:59;96661.28;;;11.18
6498;BMP280;3282;48.358;10.958;2022-10-30T05:28:28;96670.44;;;11.17
6498;BMP280;3282;48.358;10.958;2022-10-30T05:30:56;96666.56;;;11.14
6498;BMP280;3282;48.358;10.958;2022-10-30T05:33:44;96668.41;;;11.10
6498;BMP280;3282;48.358;10.958;2022-10-30T05:36:10;96669.44;;;11.05
6498;BMP280;3282;48.358;10.958;2022-10-30T05:38:37;96657.78;;;10.98
6498;BMP280;3282;48.358;10.958;2022-10-30T05:41:08;96673.66;;;11.06
6498;BMP280;3282;48.358;10.958;2022-10-30T05:43:35;96670.19;;;11.06
6498;BMP280;3282;48.358;10.958;2022-10-30T05:46:01;96675.22;;;11.07
6498;BMP280;3282;48.358;10.958;2022-10-30T05:48:28;96670.63;;;11.08
6498;BMP280;3282;48.358;10.958;2022-10-30T05:50:55;96667.53;;;11.06
6498;BMP280;3282;48.358;10.958;2022-10-30T05:53:28;96669.09;;;11.07
6498;BMP280;3282;48.358;10.958;2022-10-30T05:55:56;96652.88;;;11.00
6498;BMP280;3282;48.358;10.958;2022-10-30T05:58:29;96672.06;;;11.02
6498;BMP280;3282;48.358;10.958;2022-10-30T06:00:58;96666.34;;;11.03
6498;BMP280;3282;48.358;10.958;2022-10-30T06:03:39;96666.75;;;11.05
6498;BMP280;3282;48.358;10.958;2022-10-30T06:06:06;96658.66;;;11.02
6498;BMP280;3282;48.358;10.958;2022-10-30T06:08:32;96665.38;;;11.12
6498;BMP280;3282;48.358;10.958;2022-10-30T06:11:04;96673.06;;;11.13
6498;BMP280;3282;48.358;10.958;2022-10-30T06:13:38;96665.28;;;11.08
6498;BMP280;3282;48.358;10.958;2022-10-30T06:16:10;96670.38;;;11.13
6498;BMP280;3282;48.358;10.958;2022-10-30T06:18:57;96662.16;;;11.06
6498;BMP280;3282;48.358;10.958;2022-10-30T06:21:25;96675.47;;;11.18
6498;BMP280;3282;48.358;10.958;2022-10-30T06:24:14;96683.97;;;11.24
6498;BMP280;3282;48.358;10.958;2022-10-30T06:26:47;96678.72;;;11.28
6498;BMP280;3282;48.358;10.958;2022-10-30T06:29:16;96675.72;;;11.29
6498;BMP280;3282;48.358;10.958;2022-10-30T06:31:43;96672.81;;;11.38
6498;BMP280;3282;48.358;10.958;2022-10-30T06:34:11;96676.75;;;11.44
6498;BMP280;3282;48.358;10.958;2022-10-30T06:36:39;96686.50;;;11.53
6498;BMP280;3282;48.358;10.958;2022-10-30T06:39:06;96684.72;;;11.61
6498;BMP280;3282;48.358;10.958;2022-10-30T06:41:40;96689.13;;;11.69
6498;BMP280;3282;48.358;10.958;2022-10-30T06:44:26;96676.56;;;11.73
6498;BMP280;3282;48.358;10.958;2022-10-30T06:46:53;96687.06;;;11.82
6498;BMP280;3282;48.358;10.958;2022-10-30T06:49:20;96691.34;;;11.87
6498;BMP280;3282;48.358;10.958;2022-10-30T06:51:47;96649.25;;;11.67
6498;BMP280;3282;48.358;10.958;2022-10-30T06:54:16;96681.94;;;11.96
6498;BMP280;3282;48.358;10.958;2022-10-30T06:57:13;96680.50;;;12.03
6498;BMP280;3282;48.358;10.958;2022-10-30T06:59:50;96684.09;;;12.10
6498;BMP280;3282;48.358;10.958;2022-10-30T07:02:42;96688.03;;;12.17
6498;BMP280;3282;48.358;10.958;2022-10-30T07:05:11;96687.34;;;12.20
6498;BMP280;3282;48.358;10.958;2022-10-30T07:07:37;96689.66;;;12.21
6498;BMP280;3282;48.358;10.958;2022-10-30T07:10:06;96686.00;;;12.30
6498;BMP280;3282;48.358;10.958;2022-10-30T07:12:56;96687.94;;;12.33
6498;BMP280;3282;48.358;10.958;2022-10-30T07:15:50;96678.31;;;12.32
6498;BMP280;3282;48.358;10.958;2022-10-30T07:18:20;96677.63;;;12.35
6498;BMP280;3282;48.358;10.958;2022-10-30T07:20:53;96694.66;;;12.46
6498;BMP280;3282;48.358;10.958;2022-10-30T07:23:21;96693.97;;;12.50
6498;BMP280;3282;48.358;10.958;2022-10-30T07:25:48;96693.28;;;12.56
6498;BMP280;3282;48.358;10.958;2022-10-30T07:28:21;96698.69;;;12.60
6498;BMP280;3282;48.358;10.958;2022-10-30T07:31:17;96689.19;;;12.63
6498;BMP280;3282;48.358;10.958;2022-10-30T07:34:18;96693.50;;;12.71
6498;BMP280;3282;48.358;10.958;2022-10-30T07:37:20;96692.03;;;12.73
6498;BMP280;3282;48.358;10.958;2022-10-30T07:40:05;96688.19;;;12.74
6498;BMP280;3282;48.358;10.958;2022-10-30T07:42:58;96696.31;;;12.78
6498;BMP280;3282;48.358;10.958;2022-10-30T07:45:29;96694.09;;;12.84
6498;BMP280;3282;48.358;10.958;2022-10-30T07:48:34;96686.91;;;12.92
6498;BMP280;3282;48.358;10.958;2022-10-30T07:51:20;96686.28;;;13.02
6498;BMP280;3282;48.358;10.958;2022-10-30T07:53:48;96691.81;;;13.13
6498;BMP280;3282;48.358;10.958;2022-10-30T07:56:15;96701.50;;;13.21
6498;BMP280;3282;48.358;10.958;2022-10-30T07:59:07;96701.59;;;13.29
6498;BMP280;3282;48.358;10.958;2022-10-30T08:01:46;96697.44;;;13.35
6498;BMP280;3282;48.358;10.958;2022-10-30T08:04:27;96690.63;;;13.41
6498;BMP280;3282;48.358;10.958;2022-10-30T08:06:58;96696.44;;;13.47
6498;BMP280;3282;48.358;10.958;2022-10-30T08:09:25;96703.91;;;13.61
6498;BMP280;3282;48.358;10.958;2022-10-30T08:11:52;96676.56;;;13.55
6498;BMP280;3282;48.358;10.958;2022-10-30T08:14:19;96704.16;;;13.83
6498;BMP280;3282;48.358;10.958;2022-10-30T08:16:46;96714.94;;;13.90
6498;BMP280;3282;48.358;10.958;2022-10-30T08:19:12;96702.00;;;13.99
6498;BMP280;3282;48.358;10.958;2022-10-30T08:21:40;96706.38;;;14.19
6498;BMP280;3282;48.358;10.958;2022-10-30T08:24:12;96683.78;;;14.31
6498;BMP280;3282;48.358;10.958;2022-10-30T08:26:41;96687.44;;;14.53
6498;BMP280;3282;48.358;10.958;2022-10-30T08:29:09;96703.00;;;14.78
6498;BMP280;3282;48.358;10.958;2022-10-30T08:31:37;96691.16;;;14.90
6498;BMP280;3282;48.358;10.958;2022-10-30T08:34:15;96695.09;;;15.11
6498;BMP280;3282;48.358;10.958;2022-10-30T08:36:51;96697.91;;;15.36
6498;BMP280;3282;48.358;10.958;2022-10-30T08:39:18;96692.56;;;15.54
6498;BMP280;3282;48.358;10.958;2022-10-30T08:41:53;96696.47;;;15.82
6498;BMP280;3282;48.358;10.958;2022-10-30T08:44:20;96695.34;;;16.09
6498;BMP280;3282;48.358;10.958;2022-10-30T08:47:05;96700.38;;;16.36
6498;BMP280;3282;48.358;10.958;2022-10-30T08:49:32;96715.38;;;16.63
6498;BMP280;3282;48.358;10.958;2022-10-30T08:52:00;96708.03;;;16.85
6498;BMP280;3282;48.358;10.958;2022-10-30T08:54:27;96705.22;;;17.14
6498;BMP280;3282;48.358;10.958;2022-10-30T08:56:54;96700.50;;;17.29
6498;BMP280;3282;48.358;10.958;2022-10-30T08:59:22;96705.47;;;17.49
6498;BMP280;3282;48.358;10.958;2022-10-30T09:01:50;96699.03;;;17.85
6498;BMP280;3282;48.358;10.958;2022-10-30T09:04:17;96698.81;;;18.56
6498;BMP280;3282;48.358;10.958;2022-10-30T09:07:02;96706.31;;;19.14
6498;BMP280;3282;48.358;10.958;2022-10-30T09:09:51;96703.31;;;19.36
6498;BMP280;3282;48.358;10.958;2022-10-30T09:12:17;96704.84;;;19.37
6498;BMP280;3282;48.358;10.958;2022-10-30T09:14:45;96714.91;;;19.40
6498;BMP280;3282;48.358;10.958;2022-10-30T09:17:12;96698.91;;;19.46
6498;BMP280;3282;48.358;10.958;2022-10-30T09:19:42;96679.16;;;19.45
6498;BMP280;3282;48.358;10.958;2022-10-30T09:22:12;96716.09;;;19.90
6498;BMP280;3282;48.358;10.958;2022-10-30T09:24:40;96706.00;;;20.15
6498;BMP280;3282;48.358;10.958;2022-10-30T09:27:27;96697.13;;;20.35
6498;BMP280;3282;48.358;10.958;2022-10-30T09:29:56;96707.41;;;20.67
6498;BMP280;3282;48.358;10.958;2022-10-30T09:32:28;96705.59;;;20.81
6498;BMP280;3282;48.358;10.958;2022-10-30T09:35:04;96694.09;;;20.93
6498;BMP280;3282;48.358;10.958;2022-10-30T09:37:38;96706.56;;;21.11
6498;BMP280;3282;48.358;10.958;2022-10-30T09:40:21;96710.31;;;21.17
6498;BMP280;3282;48.358;10.958;2022-10-30T09:42:50;96709.53;;;21.17
6498;BMP280;3282;48.358;10.958;2022-10-30T09:57:03;96721.78;;;21.79
6498;BMP280;3282;48.358;10.958;2022-10-30T09:59:49;96719.06;;;21.95
6498;BMP280;3282;48.358;10.958;2022-10-30T10:02:34;96716.25;;;21.99
6498;BMP280;3282;48.358;10.958;2022-10-30T10:05:23;96714.94;;;22.20
6498;BMP280;3282;48.358;10.958;2022-10-30T10:08:16;96714.13;;;22.36
6498;BMP280;3282;48.358;10.958;2022-10-30T10:11:16;96709.72;;;22.09
6498;BMP280;3282;48.358;10.958;2022-10-30T10:16:30;96708.94;;;22.25
6498;BMP280;3282;48.358;10.958;2022-10-30T10:19:13;96699.47;;;22.30
6498;BMP280;3282;48.358;10.958;2022-10-30T10:21:44;96701.88;;;22.57
6498;BMP280;3282;48.358;10.958;2022-10-30T10:24:16;96700.75;;;22.55
6498;BMP280;3282;48.358;10.958;2022-10-30T10:26:54;96693.16;;;22.63
6498;BMP280;3282;48.358;10.958;2022-10-30T10:32:16;96689.00;;;22.28
6498;BMP280;3282;48.358;10.958;2022-10-30T10:37:51;96692.72;;;22.64
6498;BMP280;3282;48.358;10.958;2022-10-30T10:40:36;96689.47;;;22.82
6498;BMP280;3282;48.358;10.958;2022-10-30T10:51:33;96680.56;;;23.34
6498;BMP280;3282;48.358;10.958;2022-10-30T10:54:15;96688.16;;;23.52
6498;BMP280;3282;48.358;10.958;2022-10-30T10:56:46;96683.19;;;23.73
6498;BMP280;3282;48.358;10.958;2022-10-30T11:01:50;96676.22;;;24.07
6498;BMP280;3282;48.358;10.958;2022-10-30T11:04:26;96676.09;;;24.33
6498;BMP280;3282;48.358;10.958;2022-10-30T11:06:57;96674.44;;;24.36
6498;BMP280;3282;48.358;10.958;2022-10-30T11:09:25;96670.34;;;24.40
6498;BMP280;3282;48.358;10.958;2022-10-30T11:11:54;96656.94;;;24.33
6498;BMP280;3282;48.358;10.958;2022-10-30T11:14:24;96631.41;;;24.27
6498;BMP280;3282;48.358;10.958;2022-10-30T11:17:04;96656.56;;;24.44
6498;BMP280;3282;48.358;10.958;2022-10-30T11:19:36;96653.50;;;24.42
6498;BMP280;3282;48.358;10.958;2022-10-30T11:22:03;96646.13;;;24.29
6498;BMP280;3282;48.358;10.958;2022-10-30T11:24:36;96658.28;;;24.28
6498;BMP280;3282;48.358;10.958;2022-10-30T11:27:27;96660.13;;;24.09
6498;BMP280;3282;48.358;10.958;2022-10-30T11:30:04;96650.69;;;23.88
6498;BMP280;3282;48.358;10.958;2022-10-30T11:32:32;96644.84;;;23.76
6498;BMP280;3282;48.358;10.958;2022-10-30T11:35:02;96651.72;;;23.81
6498;BMP280;3282;48.358;10.958;2022-10-30T11:37:36;96645.31;;;23.97
6498;BMP280;3282;48.358;10.958;2022-10-30T11:45:19;96638.88;;;24.58
6498;BMP280;3282;48.358;10.958;2022-10-30T11:47:49;96642.47;;;24.86
6498;BMP280;3282;48.358;10.958;2022-10-30T11:50:19;96643.28;;;25.06
6498;BMP280;3282;48.358;10.958;2022-10-30T11:52:50;96639.69;;;25.18
6498;BMP280;3282;48.358;10.958;2022-10-30T11:55:25;96642.91;;;25.35
6498;BMP280;3282;48.358;10.958;2022-10-30T11:57:57;96642.94;;;25.54
6498;BMP280;3282;48.358;10.958;2022-10-30T12:00:26;96643.53;;;25.77
6498;BMP280;3282;48.358;10.958;2022-10-30T12:02:55;96625.59;;;25.85
6498;BMP280;3282;48.358;10.958;2022-10-30T12:07:54;96636.53;;;25.94
6498;BMP280;3282;48.358;10.958;2022-10-30T12:10:28;96623.56;;;25.95
6498;BMP280;3282;48.358;10.958;2022-10-30T12:12:55;96629.53;;;26.03
6498;BMP280;3282;48.358;10.958;2022-10-30T12:15:26;96618.53;;;26.12
6498;BMP280;3282;48.358;10.958;2022-10-30T12:17:58;96618.34;;;26.25
6498;BMP280;3282;48.358;10.958;2022-10-30T12:20:25;96617.84;;;26.36
6498;BMP280;3282;48.358;10.958;2022-10-30T12:22:53;96595.63;;;26.34
6498;BMP280;3282;48.358;10.958;2022-10-30T12:25:27;96601.41;;;26.36
6498;BMP280;3282;48.358;10.958;2022-10-30T12:28:07;96595.88;;;26.45
6498;BMP280;3282;48.358;10.958;2022-10-30T12:30:40;96602.28;;;26.42
6498;BMP280;3282;48.358;10.958;2022-10-30T12:33:28;96601.78;;;26.53
6498;BMP280;3282;48.358;10.958;2022-10-30T12:36:00;96600.97;;;26.71
6498;BMP280;3282;48.358;10.958;2022-10-30T12:38:41;96591.31;;;26.76
6498;BMP280;3282;48.358;10.958;2022-10-30T12:41:27;96592.41;;;26.69
6498;BMP280;3282;48.358;10.958;2022-10-30T12:44:13;96578.44;;;26.58
6498;BMP280;3282;48.358;10.958;2022-10-30T12:46:51;96585.16;;;26.57
6498;BMP280;3282;48.358;10.958;2022-10-30T12:51:47;96592.84;;;26.43
6498;BMP280;3282;48.358;10.958;2022-10-30T12:57:13;96587.59;;;26.11
6498;BMP280;3282;48.358;10.958;2022-10-30T13:00:04;96590.84;;;25.91
6498;BMP280;3282;48.358;10.958;2022-10-30T13:07:57;96592.09;;;25.34
6498;BMP280;3282;48.358;10.958;2022-10-30T13:10:30;96577.59;;;25.15
6498;BMP280;3282;48.358;10.958;2022-10-30T13:13:08;96585.81;;;24.96
6498;BMP280;3282;48.358;10.958;2022-10-30T13:15:41;96575.38;;;24.72
6498;BMP280;3282;48.358;10.958;2022-10-30T13:18:14;96575.34;;;24.63
6498;BMP280;3282;48.358;10.958;2022-10-30T13:20:47;96578.38;;;24.56
6498;BMP280;3282;48.358;10.958;2022-10-30T13:23:23;96580.09;;;24.40
6498;BMP280;3282;48.358;10.958;2022-10-30T13:28:51;96567.94;;;24.10
6498;BMP280;3282;48.358;10.958;2022-10-30T13:34:26;96575.75;;;23.89
6498;BMP280;3282;48.358;10.958;2022-10-30T13:37:01;96576.09;;;23.78
6498;BMP280;3282;48.358;10.958;2022-10-30T13:39:39;96583.03;;;23.70
6498;BMP280;3282;48.358;10.958;2022-10-30T13:42:28;96577.28;;;23.55
6498;BMP280;3282;48.358;10.958;2022-10-30T13:51:16;96580.31;;;23.34
6498;BMP280;3282;48.358;10.958;2022-10-30T13:53:46;96575.38;;;23.29
6498;BMP280;3282;48.358;10.958;2022-10-30T13:56:16;96577.81;;;23.27
6498;BMP280;3282;48.358;10.958;2022-10-30T13:58:55;96580.66;;;23.23
6498;BMP280;3282;48.358;10.958;2022-10-30T14:01:34;96569.28;;;23.12
6498;BMP280;3282;48.358;10.958;2022-10-30T14:04:19;96577.41;;;23.16
6498;BMP280;3282;48.358;10.958;2022-10-30T14:07:06;96582.19;;;23.11
6498;BMP280;3282;48.358;10.958;2022-10-30T14:10:41;96580.66;;;23.10
6498;BMP280;3282;48.358;10.958;2022-10-30T14:12:44;96577.59;;;23.08
6498;BMP280;3282;48.358;10.958;2022-10-30T14:23:19;96568.44;;;23.02
6498;BMP280;3282;48.358;10.958;2022-10-30T14:28:30;96579.47;;;22.98
6498;BMP280;3282;48.358;10.958;2022-10-30T14:31:01;96578.94;;;22.91
6498;BMP280;3282;48.358;10.958;2022-10-30T14:38:58;96567.72;;;22.76
6498;BMP280;3282;48.358;10.958;2022-10-30T14:44:04;96582.97;;;22.73
6498;BMP280;3282;48.358;10.958;2022-10-30T14:46:43;96570.66;;;22.68
6498;BMP280;3282;48.358;10.958;2022-10-30T14:49:27;96573.25;;;22.59
6498;BMP280;3282;48.358;10.958;2022-10-30T15:13:48;96581.81;;;21.89
6498;BMP280;3282;48.358;10.958;2022-10-30T15:16:17;96583.88;;;21.85
6498;BMP280;3282;48.358;10.958;2022-10-30T15:18:46;96575.13;;;21.77
6498;BMP280;3282;48.358;10.958;2022-10-30T15:21:19;96579.00;;;21.63
6498;BMP280;3282;48.358;10.958;2022-10-30T15:23:48;96580.25;;;21.58
6498;BMP280;3282;48.358;10.958;2022-10-30T15:26:22;96581.22;;;21.52
6498;BMP280;3282;48.358;10.958;2022-10-30T15:28:51;96577.16;;;21.43
6498;BMP280;3282;48.358;10.958;2022-10-30T15:31:22;96572.63;;;21.36
6498;BMP280;3282;48.358;10.958;2022-10-30T15:33:50;96580.19;;;21.29
6498;BMP280;3282;48.358;10.958;2022-10-30T15:36:18;96588.22;;;21.19
6498;BMP280;3282;48.358;10.958;2022-10-30T15:39:13;96581.13;;;21.05
6498;BMP280;3282;48.358;10.958;2022-10-30T15:41:43;96576.69;;;20.95
6498;BMP280;3282;48.358;10.958;2022-10-30T15:44:13;96574.31;;;20.80
6498;BMP280;3282;48.358;10.958;2022-10-30T15:46:46;96577.53;;;20.75
6498;BMP280;3282;48.358;10.958;2022-10-30T15:49:18;96569.34;;;20.59
6498;BMP280;3282;48.358;10.958;2022-10-30T15:51:45;96586.47;;;20.55
6498;BMP280;3282;48.358;10.958;2022-10-30T15:54:16;96580.56;;;20.40
6498;BMP280;3282;48.358;10.958;2022-10-30T15:56:47;96585.34;;;20.33
6498;BMP280;3282;48.358;10.958;2022-10-30T15:59:35;96576.47;;;20.12
6498;BMP280;3282;48.358;10.958;2022-10-30T16:02:21;96583.59;;;20.02
6498;BMP280;3282;48.358;10.958;2022-10-30T16:04:49;96589.25;;;19.91
6498;BMP280;3282;48.358;10.958;2022-10-30T16:07:19;96590.28;;;19.77
6498;BMP280;3282;48.358;10.958;2022-10-30T16:09:53;96595.88;;;19.66
6498;BMP280;3282;48.358;10.958;2022-10-30T16:12:23;96589.56;;;19.49
6498;BMP280;3282;48.358;10.958;2022-10-30T16:14:50;96592.34;;;19.45
6498;BMP280;3282;48.358;10.958;2022-10-30T16:17:17;96598.69;;;19.35
6498;BMP280;3282;48.358;10.958;2022-10-30T16:19:47;96595.34;;;19.23
6498;BMP280;3282;48.358;10.958;2022-10-30T16:22:22;96594.75;;;19.12
6498;BMP280;3282;48.358;10.958;2022-10-30T16:24:50;96600.25;;;19.05
6498;BMP280;3282;48.358;10.958;2022-10-30T16:27:18;96600.03;;;18.95
6498;BMP280;3282;48.358;10.958;2022-10-30T16:29:48;96605.63;;;18.81
6498;BMP280;3282;48.358;10.958;2022-10-30T16:32:16;96597.22;;;18.71
6498;BMP280;3282;48.358;10.958;2022-10-30T16:34:44;96602.75;;;18.64
6498;BMP280;3282;48.358;10.958;2022-10-30T16:39:42;96606.06;;;18.41
6498;BMP280;3282;48.358;10.958;2022-10-30T16:42:20;96608.56;;;18.28
6498;BMP280;3282;48.358;10.958;2022-10-30T16:44:49;96581.72;;;18.02
6498;BMP280;3282;48.358;10.958;2022-10-30T16:49:45;96610.28;;;18.07
6498;BMP280;3282;48.358;10.958;2022-10-30T16:52:15;96612.69;;;17.98
6498;BMP280;3282;48.358;10.958;2022-10-30T16:54:58;96610.09;;;17.87
6498;BMP280;3282;48.358;10.958;2022-10-30T16:57:27;96609.72;;;17.81